sensor_id;sensor_type;location;lat;lon;timestamp;pressure;altitude;pressure_sealevel;temperature;humidity
71457;BME280;59263;48.160;11.752;2023-03-04T00:01:25;96218.16;;;-0.05;100.00
71457;BME280;59263;48.160;11.752;2023-03-04T00:03:50;96186.13;;;-0.28;100.00
71457;BME280;59263;48.160;11.752;2023-03-04T00:06:16;96224.06;;;-0.04;100.00
71457;BME280;59263;48.160;11.752;2023-03-04T00:08:44;96215.97;;;-0.12;100.00
71457;BME280;59263;48.160;11.752;2023-03-04T00:11:09;96196.31;;;-0.28;100.00
71457;BME280;59263;48.160;11.752;2023-03-04T00:13:35;96183.72;;;-0.31;100.00
71457;BME280;59263;48.160;11.752;2023-03-04T00:16:03;96175.00;;;-0.44;100.00
71457;BME280;59263;48.160;11.752;2023-03-04T00:18:31;96211.63;;;-0.29;100.00
71457;BME280;59263;48.160;11.752;2023-03-04T00:20:57;96202.66;;;-0.38;100.00
71457;BME280;59263;48.160;11.752;2023-03-04T00:23:25;96187.06;;;-0.49;100.00
71457;BME280;59263;48.160;11.752;2023-03-04T00:25:50;96217.19;;;-0.40;100.00
71457;BME280;59263;48.160;11.752;2023-03-04T00:28:16;96193.38;;;-0.58;100.00
71457;BME280;59263;48.160;11.752;2023-03-04T00:30:41;96227.91;;;-0.33;100.00
71457;BME280;59263;48.160;11.752;2023-03-04T00:33:06;96216.53;;;-0.45;100.00
71457;BME280;59263;48.160;11.752;2023-03-04T00:35:34;96242.06;;;-0.28;100.00
71457;BME280;59263;48.160;11.752;2023-03-04T00:38:02;96212.22;;;-0.43;100.00
71457;BME280;59263;48.160;11.752;2023-03-04T00:40:28;96234.44;;;-0.28;100.00
71457;BME280;59263;48.160;11.752;2023-03-04T00:42:53;96208.38;;;-0.52;100.00
71457;BME280;59263;48.160;11.752;2023-03-04T00:45:21;96176.81;;;-0.66;100.00
71457;BME280;59263;48.160;11.752;2023-03-04T00:47:46;96233.69;;;-0.30;100.00
71457;BME280;59263;48.160;11.752;2023-03-04T00:50:11;96199.66;;;-0.46;100.00
71457;BME280;59263;48.160;11.752;2023-03-04T00:52:37;96226.06;;;-0.30;100.00
71457;BME280;59263;48.160;11.752;2023-03-04T00:55:06;96202.13;;;-0.44;100.00
71457;BME280;59263;48.160;11.752;2023-03-04T00:57:31;96234.91;;;-0.19;100.00
71457;BME280;59263;48.160;11.752;2023-03-04T00:59:59;96193.53;;;-0.42;100.00
71457;BME280;59263;48.160;11.752;2023-03-04T01:02:25;96198.75;;;-0.45;100.00
71457;BME280;59263;48.160;11.752;2023-03-04T01:04:50;96188.91;;;-0.53;100.00
71457;BME280;59263;48.160;11.752;2023-03-04T01:07:16;96182.28;;;-0.55;100.00
71457;BME280;59263;48.160;11.752;2023-03-04T01:09:43;96212.72;;;-0.35;100.00
71457;BME280;59263;48.160;11.752;2023-03-04T01:12:09;96150.66;;;-0.68;100.00
71457;BME280;59263;48.160;11.752;2023-03-04T01:14:36;96174.66;;;-0.55;100.00
71457;BME280;59263;48.160;11.752;2023-03-04T01:17:04;96217.06;;;-0.37;100.00
71457;BME280;59263;48.160;11.752;2023-03-04T01:19:29;96212.59;;;-0.32;100.00
71457;BME280;59263;48.160;11.752;2023-03-04T01:21:54;96174.13;;;-0.63;100.00
71457;BME280;59263;48.160;11.752;2023-03-04T01:24:22;96152.50;;;-0.72;100.00
71457;BME280;59263;48.160;11.752;2023-03-04T01:26:47;96198.06;;;-0.49;100.00
71457;BME280;59263;48.160;11.752;2023-03-04T01:29:16;96178.81;;;-0.54;100.00
71457;BME280;59263;48.160;11.752;2023-03-04T01:31:41;96200.59;;;-0.49;100.00
71457;BME280;59263;48.160;11.752;2023-03-04T01:34:06;96173.44;;;-0.67;100.00
71457;BME280;59263;48.160;11.752;2023-03-04T01:36:34;96182.53;;;-0.61;100.00
71457;BME280;59263;48.160;11.752;2023-03-04T01:38:59;96166.16;;;-0.75;100.00
71457;BME280;59263;48.160;11.752;2023-03-04T01:41:25;96181.00;;;-0.65;100.00
71457;BME280;59263;48.160;11.752;2023-03-04T01:43:58;96197.66;;;-0.58;100.00
71457;BME280;59263;48.160;11.752;2023-03-04T01:46:28;96176.38;;;-0.76;100.00
71457;BME280;59263;48.160;11.752;2023-03-04T01:48:54;96179.63;;;-0.73;100.00
71457;BME280;59263;48.160;11.752;2023-03-04T01:51:19;96175.56;;;-0.77;100.00
71457;BME280;59263;48.160;11.752;2023-03-04T01:53:47;96158.16;;;-0.86;100.00
71457;BME280;59263;48.160;11.752;2023-03-04T01:56:24;96179.06;;;-0.79;100.00
71457;BME280;59263;48.160;11.752;2023-03-04T02:01:42;96185.06;;;-0.82;100.00
71457;BME280;59263;48.160;11.752;2023-03-04T02:04:09;96178.47;;;-0.86;100.00
71457;BME280;59263;48.160;11.752;2023-03-04T02:06:36;96155.66;;;-1.06;100.00
71457;BME280;59263;48.160;11.752;2023-03-04T02:09:02;96184.56;;;-0.90;100.00
71457;BME280;59263;48.160;11.752;2023-03-04T02:11:28;96157.16;;;-1.02;100.00
71457;BME280;59263;48.160;11.752;2023-03-04T02:13:53;96148.97;;;-1.09;100.00
71457;BME280;59263;48.160;11.752;2023-03-04T02:16:18;96131.06;;;-1.06;100.00
71457;BME280;59263;48.160;11.752;2023-03-04T02:18:44;96148.41;;;-0.95;100.00
71457;BME280;59263;48.160;11.752;2023-03-04T02:26:18;96170.00;;;-0.85;100.00
71457;BME280;59263;48.160;11.752;2023-03-04T02:28:55;96161.31;;;-1.00;100.00
71457;BME280;59263;48.160;11.752;2023-03-04T02:34:32;96162.13;;;-0.99;100.00
71457;BME280;59263;48.160;11.752;2023-03-04T02:36:58;96139.13;;;-1.16;100.00
71457;BME280;59263;48.160;11.752;2023-03-04T02:39:31;96153.22;;;-1.09;100.00
71457;BME280;59263;48.160;11.752;2023-03-04T02:42:05;96166.50;;;-1.03;100.00
71457;BME280;59263;48.160;11.752;2023-03-04T02:44:34;96141.56;;;-1.13;100.00
71457;BME280;59263;48.160;11.752;2023-03-04T02:47:00;96133.31;;;-1.18;100.00
71457;BME280;59263;48.160;11.752;2023-03-04T02:49:27;96157.16;;;-1.02;100.00
71457;BME280;59263;48.160;11.752;2023-03-04T02:52:20;96143.84;;;-1.07;100.00
71457;BME280;59263;48.160;11.752;2023-03-04T02:54:46;96144.09;;;-1.13;100.00
71457;BME280;59263;48.160;11.752;2023-03-04T02:57:12;96143.69;;;-1.04;100.00
71457;BME280;59263;48.160;11.752;2023-03-04T02:59:39;96136.34;;;-1.10;100.00
71457;BME280;59263;48.160;11.752;2023-03-04T03:02:05;96119.94;;;-1.22;100.00
71457;BME280;59263;48.160;11.752;2023-03-04T03:04:31;96124.41;;;-1.08;100.00
71457;BME280;59263;48.160;11.752;2023-03-04T03:06:57;96138.63;;;-1.04;100.00
71457;BME280;59263;48.160;11.752;2023-03-04T03:09:23;96104.81;;;-1.25;100.00
71457;BME280;59263;48.160;11.752;2023-03-04T03:11:48;96091.88;;;-1.39;100.00
71457;BME280;59263;48.160;11.752;2023-03-04T03:14:14;96157.03;;;-0.99;100.00
71457;BME280;59263;48.160;11.752;2023-03-04T03:16:39;96139.63;;;-1.08;100.00
71457;BME280;59263;48.160;11.752;2023-03-04T03:19:05;96150.44;;;-1.03;100.00
71457;BME280;59263;48.160;11.752;2023-03-04T03:21:30;96135.84;;;-1.18;100.00
71457;BME280;59263;48.160;11.752;2023-03-04T03:23:55;96146.72;;;-1.15;100.00
71457;BME280;59263;48.160;11.752;2023-03-04T03:26:24;96155.50;;;-1.24;100.00
71457;BME280;59263;48.160;11.752;2023-03-04T03:28:49;96152.97;;;-1.24;100.00
71457;BME280;59263;48.160;11.752;2023-03-04T03:31:14;96089.72;;;-1.69;100.00
71457;BME280;59263;48.160;11.752;2023-03-04T03:33:40;96171.13;;;-1.12;100.00
71457;BME280;59263;48.160;11.752;2023-03-04T03:36:08;96149.69;;;-1.26;100.00
71457;BME280;59263;48.160;11.752;2023-03-04T03:38:34;96118.59;;;-1.51;100.00
71457;BME280;59263;48.160;11.752;2023-03-04T03:40:59;96132.38;;;-1.36;100.00
71457;BME280;59263;48.160;11.752;2023-03-04T03:43:28;96170.63;;;-1.20;100.00
71457;BME280;59263;48.160;11.752;2023-03-04T03:45:53;96112.16;;;-1.60;100.00
71457;BME280;59263;48.160;11.752;2023-03-04T03:48:18;96162.50;;;-1.29;100.00
71457;BME280;59263;48.160;11.752;2023-03-04T03:50:44;96155.50;;;-1.44;100.00
71457;BME280;59263;48.160;11.752;2023-03-04T03:53:12;96146.50;;;-1.51;100.00
71457;BME280;59263;48.160;11.752;2023-03-04T03:55:37;96167.06;;;-1.37;100.00
71457;BME280;59263;48.160;11.752;2023-03-04T03:58:04;96097.75;;;-1.80;100.00
71457;BME280;59263;48.160;11.752;2023-03-04T04:00:29;96128.38;;;-1.64;100.00
71457;BME280;59263;48.160;11.752;2023-03-04T04:02:59;96102.31;;;-1.67;100.00
71457;BME280;59263;48.160;11.752;2023-03-04T04:05:25;96094.34;;;-1.58;100.00
71457;BME280;59263;48.160;11.752;2023-03-04T04:07:50;96166.31;;;-1.18;100.00
71457;BME280;59263;48.160;11.752;2023-03-04T04:10:15;96146.38;;;-1.28;100.00
71457;BME280;59263;48.160;11.752;2023-03-04T04:12:41;96127.59;;;-1.44;100.00
71457;BME280;59263;48.160;11.752;2023-03-04T04:15:08;96132.59;;;-1.42;100.00
71457;BME280;59263;48.160;11.752;2023-03-04T04:17:37;96094.94;;;-1.52;100.00
71457;BME280;59263;48.160;11.752;2023-03-04T04:20:04;96132.16;;;-1.32;100.00
71457;BME280;59263;48.160;11.752;2023-03-04T04:22:29;96135.53;;;-1.31;100.00
71457;BME280;59263;48.160;11.752;2023-03-04T04:24:55;96133.69;;;-1.28;100.00
71457;BME280;59263;48.160;11.752;2023-03-04T04:27:23;96099.94;;;-1.50;100.00
71457;BME280;59263;48.160;11.752;2023-03-04T04:29:48;96115.78;;;-1.45;100.00
71457;BME280;59263;48.160;11.752;2023-03-04T04:32:16;96116.69;;;-1.46;100.00
71457;BME280;59263;48.160;11.752;2023-03-04T04:34:41;96141.31;;;-1.28;100.00
71457;BME280;59263;48.160;11.752;2023-03-04T04:37:07;96124.06;;;-1.40;100.00
71457;BME280;59263;48.160;11.752;2023-03-04T04:39:32;96139.97;;;-1.36;100.00
71457;BME280;59263;48.160;11.752;2023-03-04T04:41:58;96106.75;;;-1.52;100.00
71457;BME280;59263;48.160;11.752;2023-03-04T04:44:26;96151.44;;;-1.28;100.00
71457;BME280;59263;48.160;11.752;2023-03-04T04:46:51;96125.06;;;-1.44;100.00
71457;BME280;59263;48.160;11.752;2023-03-04T04:49:19;96138.50;;;-1.42;100.00
71457;BME280;59263;48.160;11.752;2023-03-04T04:51:45;96130.38;;;-1.50;100.00
71457;BME280;59263;48.160;11.752;2023-03-04T04:54:12;96098.34;;;-1.73;100.00
71457;BME280;59263;48.160;11.752;2023-03-04T04:56:37;96124.13;;;-1.63;100.00
71457;BME280;59263;48.160;11.752;2023-03-04T04:59:05;96147.34;;;-1.52;100.00
71457;BME280;59263;48.160;11.752;2023-03-04T05:01:33;96131.00;;;-1.65;100.00
71457;BME280;59263;48.160;11.752;2023-03-04T05:03:58;96127.56;;;-1.64;100.00
71457;BME280;59263;48.160;11.752;2023-03-04T05:06:24;96149.91;;;-1.52;100.00
71457;BME280;59263;48.160;11.752;2023-03-04T05:08:49;96145.38;;;-1.44;100.00
71457;BME280;59263;48.160;11.752;2023-03-04T05:11:15;96114.19;;;-1.68;100.00
71457;BME280;59263;48.160;11.752;2023-03-04T05:13:41;96124.28;;;-1.66;100.00
71457;BME280;59263;48.160;11.752;2023-03-04T05:16:09;96174.03;;;-1.42;100.00
71457;BME280;59263;48.160;11.752;2023-03-04T05:18:35;96117.69;;;-1.71;100.00
71457;BME280;59263;48.160;11.752;2023-03-04T05:21:01;96086.06;;;-1.84;100.00
71457;BME280;59263;48.160;11.752;2023-03-04T05:23:28;96148.13;;;-1.50;100.00
71457;BME280;59263;48.160;11.752;2023-03-04T05:25:54;96125.53;;;-1.56;100.00
71457;BME280;59263;48.160;11.752;2023-03-04T05:28:23;96148.97;;;-1.50;100.00
71457;BME280;59263;48.160;11.752;2023-03-04T05:30:48;96152.09;;;-1.43;100.00
71457;BME280;59263;48.160;11.752;2023-03-04T05:33:15;96155.50;;;-1.44;100.00
71457;BME280;59263;48.160;11.752;2023-03-04T05:35:42;96155.44;;;-1.42;100.00
71457;BME280;59263;48.160;11.752;2023-03-04T05:38:10;96142.66;;;-1.61;100.00
71457;BME280;59263;48.160;11.752;2023-03-04T05:40:36;96161.66;;;-1.50;100.00
71457;BME280;59263;48.160;11.752;2023-03-04T05:43:02;96140.25;;;-1.64;100.00
71457;BME280;59263;48.160;11.752;2023-03-04T05:45:27;96111.91;;;-1.74;100.00
71457;BME280;59263;48.160;11.752;2023-03-04T05:47:53;96167.31;;;-1.43;100.00
71457;BME280;59263;48.160;11.752;2023-03-04T05:50:20;96171.56;;;-1.43;100.00
71457;BME280;59263;48.160;11.752;2023-03-04T05:52:46;96148.38;;;-1.56;100.00
71457;BME280;59263;48.160;11.752;2023-03-04T05:55:11;96160.81;;;-1.50;100.00
71457;BME280;59263;48.160;11.752;2023-03-04T05:57:37;96156.88;;;-1.57;100.00
71457;BME280;59263;48.160;11.752;2023-03-04T06:00:03;96175.84;;;-1.46;100.00
71457;BME280;59263;48.160;11.752;2023-03-04T06:02:30;96170.19;;;-1.52;100.00
71457;BME280;59263;48.160;11.752;2023-03-04T06:04:56;96157.78;;;-1.58;100.00
71457;BME280;59263;48.160;11.752;2023-03-04T06:07:21;96169.25;;;-1.50;100.00
71457;BME280;59263;48.160;11.752;2023-03-04T06:09:50;96159.53;;;-1.60;100.00
71457;BME280;59263;48.160;11.752;2023-03-04T06:12:18;96151.19;;;-1.62;100.00
71457;BME280;59263;48.160;11.752;2023-03-04T06:14:43;96192.44;;;-1.37;100.00
71457;BME280;59263;48.160;11.752;2023-03-04T06:17:08;96180.88;;;-1.44;100.00
71457;BME280;59263;48.160;11.752;2023-03-04T06:19:37;96116.28;;;-1.78;100.00
71457;BME280;59263;48.160;11.752;2023-03-04T06:22:03;96147.75;;;-1.61;100.00
71457;BME280;59263;48.160;11.752;2023-03-04T06:24:28;96167.22;;;-1.41;100.00
71457;BME280;59263;48.160;11.752;2023-03-04T06:26:54;96167.06;;;-1.37;100.00
71457;BME280;59263;48.160;11.752;2023-03-04T06:29:22;96163.75;;;-1.39;100.00
71457;BME280;59263;48.160;11.752;2023-03-04T06:31:47;96152.81;;;-1.41;100.00
71457;BME280;59263;48.160;11.752;2023-03-04T06:34:12;96179.75;;;-1.16;100.00
71457;BME280;59263;48.160;11.752;2023-03-04T06:36:38;96131.09;;;-1.47;100.00
71457;BME280;59263;48.160;11.752;2023-03-04T06:39:06;96196.19;;;-1.05;100.00
71457;BME280;59263;48.160;11.752;2023-03-04T06:41:32;96199.72;;;-1.07;100.00
71457;BME280;59263;48.160;11.752;2023-03-04T06:43:58;96171.41;;;-1.18;100.00
71457;BME280;59263;48.160;11.752;2023-03-04T06:46:24;96191.63;;;-0.97;100.00
71457;BME280;59263;48.160;11.752;2023-03-04T06:48:52;96165.94;;;-1.09;100.00
71457;BME280;59263;48.160;11.752;2023-03-04T06:51:18;96200.47;;;-0.85;100.00
71457;BME280;59263;48.160;11.752;2023-03-04T06:53:43;96163.06;;;-1.02;100.00
71457;BME280;59263;48.160;11.752;2023-03-04T06:56:13;96142.94;;;-1.06;100.00
71457;BME280;59263;48.160;11.752;2023-03-04T06:58:42;96198.03;;;-0.67;100.00
71457;BME280;59263;48.160;11.752;2023-03-04T07:03:40;96197.91;;;-0.64;100.00
71457;BME280;59263;48.160;11.752;2023-03-04T07:06:05;96189.66;;;-0.69;100.00
71457;BME280;59263;48.160;11.752;2023-03-04T07:08:31;96183.34;;;-0.61;100.00
71457;BME280;59263;48.160;11.752;2023-03-04T07:10:56;96187.34;;;-0.55;100.00
71457;BME280;59263;48.160;11.752;2023-03-04T07:13:22;96189.97;;;-0.38;100.00
71457;BME280;59263;48.160;11.752;2023-03-04T07:15:47;96192.16;;;-0.30;100.00
71457;BME280;59263;48.160;11.752;2023-03-04T07:18:12;96168.75;;;-0.37;100.00
71457;BME280;59263;48.160;11.752;2023-03-04T07:20:37;96203.19;;;-0.11;100.00
71457;BME280;59263;48.160;11.752;2023-03-04T07:23:03;96174.72;;;-0.19;100.00
71457;BME280;59263;48.160;11.752;2023-03-04T07:25:28;96189.22;;;-0.02;100.00
71457;BME280;59263;48.160;11.752;2023-03-04T07:27:53;96202.06;;;0.14;100.00
71457;BME280;59263;48.160;11.752;2023-03-04T07:30:19;96207.84;;;0.17;100.00
71457;BME280;59263;48.160;11.752;2023-03-04T07:32:47;96209.47;;;0.18;100.00
71457;BME280;59263;48.160;11.752;2023-03-04T07:35:13;96225.84;;;0.32;100.00
71457;BME280;59263;48.160;11.752;2023-03-04T07:37:38;96197.25;;;0.27;100.00
71457;BME280;59263;48.160;11.752;2023-03-04T07:40:05;96184.44;;;0.28;100.00
71457;BME280;59263;48.160;11.752;2023-03-04T07:42:32;96195.22;;;0.33;100.00
71457;BME280;59263;48.160;11.752;2023-03-04T07:44:57;96178.63;;;0.26;100.00
71457;BME280;59263;48.160;11.752;2023-03-04T07:47:25;96174.88;;;0.33;100.00
71457;BME280;59263;48.160;11.752;2023-03-04T07:49:51;96224.94;;;0.69;100.00
71457;BME280;59263;48.160;11.752;2023-03-04T07:52:18;96227.13;;;0.77;100.00
71457;BME280;59263;48.160;11.752;2023-03-04T07:54:43;96242.44;;;0.94;100.00
71457;BME280;59263;48.160;11.752;2023-03-04T07:57:09;96227.66;;;0.83;100.00
71457;BME280;59263;48.160;11.752;2023-03-04T07:59:34;96221.63;;;0.86;100.00
71457;BME280;59263;48.160;11.752;2023-03-04T08:01:59;96225.44;;;0.94;100.00
71457;BME280;59263;48.160;11.752;2023-03-04T08:04:27;96239.97;;;1.10;100.00
71457;BME280;59263;48.160;11.752;2023-03-04T08:06:53;96234.81;;;1.11;100.00
71457;BME280;59263;48.160;11.752;2023-03-04T08:09:18;96237.56;;;1.24;100.00
71457;BME280;59263;48.160;11.752;2023-03-04T08:11:43;96240.31;;;1.37;100.00
71457;BME280;59263;48.160;11.752;2023-03-04T08:14:13;96248.78;;;1.55;100.00
71457;BME280;59263;48.160;11.752;2023-03-04T08:16:39;96230.09;;;1.54;100.00
71457;BME280;59263;48.160;11.752;2023-03-04T08:19:05;96248.44;;;1.78;100.00
71457;BME280;59263;48.160;11.752;2023-03-04T08:21:31;96245.97;;;1.77;100.00
71457;BME280;59263;48.160;11.752;2023-03-04T08:23:58;96242.34;;;1.81;100.00
71457;BME280;59263;48.160;11.752;2023-03-04T08:26:28;96211.88;;;1.78;100.00
71457;BME280;59263;48.160;11.752;2023-03-04T08:28:55;96230.50;;;1.80;100.00
71457;BME280;59263;48.160;11.752;2023-03-04T08:31:21;96227.13;;;1.79;100.00
71457;BME280;59263;48.160;11.752;2023-03-04T08:33:47;96234.84;;;1.78;100.00
71457;BME280;59263;48.160;11.752;2023-03-04T08:36:13;96246.22;;;1.88;100.00
71457;BME280;59263;48.160;11.752;2023-03-04T08:38:39;96239.25;;;1.91;100.00
71457;BME280;59263;48.160;11.752;2023-03-04T08:41:05;96245.50;;;1.86;100.00
71457;BME280;59263;48.160;11.752;2023-03-04T08:43:31;96236.44;;;1.96;100.00
71457;BME280;59263;48.160;11.752;2023-03-04T08:45:57;96254.25;;;2.13;100.00
71457;BME280;59263;48.160;11.752;2023-03-04T08:48:22;96231.69;;;1.90;100.00
71457;BME280;59263;48.160;11.752;2023-03-04T08:50:49;96223.94;;;2.07;100.00
71457;BME280;59263;48.160;11.752;2023-03-04T08:53:15;96260.94;;;2.32;100.00
71457;BME280;59263;48.160;11.752;2023-03-04T08:55:41;96233.19;;;2.26;100.00
71457;BME280;59263;48.160;11.752;2023-03-04T08:58:08;96223.31;;;2.20;100.00
71457;BME280;59263;48.160;11.752;2023-03-04T09:00:36;96236.31;;;2.31;100.00
71457;BME280;59263;48.160;11.752;2023-03-04T09:03:02;96257.50;;;2.49;100.00
71457;BME280;59263;48.160;11.752;2023-03-04T09:05:29;96228.31;;;2.37;100.00
71457;BME280;59263;48.160;11.752;2023-03-04T09:07:55;96240.94;;;2.40;100.00
71457;BME280;59263;48.160;11.752;2023-03-04T09:10:26;96247.34;;;2.47;100.00
71457;BME280;59263;48.160;11.752;2023-03-04T09:12:51;96238.06;;;2.46;100.00
71457;BME280;59263;48.160;11.752;2023-03-04T09:15:17;96245.38;;;2.52;100.00
71457;BME280;59263;48.160;11.752;2023-03-04T09:17:42;96209.31;;;2.27;100.00
71457;BME280;59263;48.160;11.752;2023-03-04T09:20:09;96249.81;;;2.64;100.00
71457;BME280;59263;48.160;11.752;2023-03-04T09:22:38;96210.53;;;2.51;100.00
71457;BME280;59263;48.160;11.752;2023-03-04T09:25:04;96235.88;;;2.70;100.00
71457;BME280;59263;48.160;11.752;2023-03-04T09:27:30;96195.94;;;2.53;100.00
71457;BME280;59263;48.160;11.752;2023-03-04T09:29:55;96216.91;;;2.90;100.00
71457;BME280;59263;48.160;11.752;2023-03-04T09:32:20;96237.50;;;3.17;100.00
71457;BME280;59263;48.160;11.752;2023-03-04T09:34:46;96212.75;;;3.18;100.00
71457;BME280;59263;48.160;11.752;2023-03-04T09:37:11;96234.72;;;3.36;100.00
71457;BME280;59263;48.160;11.752;2023-03-04T09:39:37;96229.41;;;3.25;100.00
71457;BME280;59263;48.160;11.752;2023-03-04T09:42:07;96207.66;;;3.18;100.00
71457;BME280;59263;48.160;11.752;2023-03-04T09:44:37;96243.16;;;3.52;100.00
71457;BME280;59263;48.160;11.752;2023-03-04T09:47:06;96237.84;;;3.70;100.00
71457;BME280;59263;48.160;11.752;2023-03-04T09:49:37;96214.28;;;3.50;100.00
71457;BME280;59263;48.160;11.752;2023-03-04T09:54:49;96237.75;;;4.00;100.00
71457;BME280;59263;48.160;11.752;2023-03-04T09:57:28;96232.28;;;4.06;100.00
71457;BME280;59263;48.160;11.752;2023-03-04T10:00:25;96229.84;;;4.04;100.00
71457;BME280;59263;48.160;11.752;2023-03-04T10:05:33;96219.66;;;4.17;100.00
71457;BME280;59263;48.160;11.752;2023-03-04T10:10:56;96216.97;;;4.33;100.00
71457;BME280;59263;48.160;11.752;2023-03-04T10:13:37;96229.66;;;4.49;100.00
71457;BME280;59263;48.160;11.752;2023-03-04T10:16:10;96194.16;;;4.43;100.00
71457;BME280;59263;48.160;11.752;2023-03-04T10:22:00;96199.50;;;4.52;100.00
71457;BME280;59263;48.160;11.752;2023-03-04T10:24:36;96197.88;;;4.51;100.00
71457;BME280;59263;48.160;11.752;2023-03-04T10:27:06;96189.63;;;4.60;100.00
71457;BME280;59263;48.160;11.752;2023-03-04T10:29:36;96182.78;;;4.74;100.00
71457;BME280;59263;48.160;11.752;2023-03-04T10:32:02;96186.88;;;4.64;100.00
71457;BME280;59263;48.160;11.752;2023-03-04T10:34:28;96205.38;;;4.81;100.00
71457;BME280;59263;48.160;11.752;2023-03-04T10:36:59;96208.09;;;5.05;100.00
71457;BME280;59263;48.160;11.752;2023-03-04T10:39:31;96207.28;;;5.05;100.00
71457;BME280;59263;48.160;11.752;2023-03-04T10:42:03;96196.41;;;5.01;100.00
71457;BME280;59263;48.160;11.752;2023-03-04T10:44:33;96175.84;;;4.89;100.00
71457;BME280;59263;48.160;11.752;2023-03-04T10:47:01;96195.41;;;5.17;100.00
71457;BME280;59263;48.160;11.752;2023-03-04T10:49:28;96192.94;;;5.28;100.00
71457;BME280;59263;48.160;11.752;2023-03-04T10:52:18;96195.63;;;5.39;100.00
71457;BME280;59263;48.160;11.752;2023-03-04T10:54:52;96181.75;;;5.29;100.00
71457;BME280;59263;48.160;11.752;2023-03-04T10:57:34;96184.97;;;5.45;100.00
71457;BME280;59263;48.160;11.752;2023-03-04T11:00:25;96177.75;;;5.38;100.00
71457;BME280;59263;48.160;11.752;2023-03-04T11:02:52;96174.91;;;5.42;100.00
71457;BME280;59263;48.160;11.752;2023-03-04T11:05:23;96134.25;;;5.36;100.00
71457;BME280;59263;48.160;11.752;2023-03-04T11:07:53;96189.78;;;5.63;100.00
71457;BME280;59263;48.160;11.752;2023-03-04T11:13:07;96180.66;;;5.71;100.00
71457;BME280;59263;48.160;11.752;2023-03-04T11:15:58;96169.97;;;5.65;100.00
71457;BME280;59263;48.160;11.752;2023-03-04T11:18:42;96190.06;;;5.83;100.00
71457;BME280;59263;48.160;11.752;2023-03-04T11:21:25;96177.03;;;5.99;100.00
71457;BME280;59263;48.160;11.752;2023-03-04T11:26:28;96173.03;;;5.70;100.00
71457;BME280;59263;48.160;11.752;2023-03-04T11:44:46;96154.63;;;6.01;100.00
71457;BME280;59263;48.160;11.752;2023-03-04T11:53:12;96169.75;;;5.68;100.00
71457;BME280;59263;48.160;11.752;2023-03-04T11:58:54;96160.19;;;5.70;100.00
71457;BME280;59263;48.160;11.752;2023-03-04T12:01:51;96164.78;;;6.03;100.00
71457;BME280;59263;48.160;11.752;2023-03-04T12:13:11;96153.31;;;5.83;100.00
71457;BME280;59263;48.160;11.752;2023-03-04T12:18:39;96132.72;;;6.09;100.00
71457;BME280;59263;48.160;11.752;2023-03-04T12:21:14;96143.13;;;6.31;100.00
71457;BME280;59263;48.160;11.752;2023-03-04T12:32:31;96118.78;;;6.48;100.00
71457;BME280;59263;48.160;11.752;2023-03-04T12:35:23;96111.03;;;6.61;100.00
71457;BME280;59263;48.160;11.752;2023-03-04T12:40:40;96112.81;;;6.47;100.00
71457;BME280;59263;48.160;11.752;2023-03-04T12:43:26;96105.16;;;6.59;100.00
71457;BME280;59263;48.160;11.752;2023-03-04T12:56:50;96089.97;;;7.02;100.00
71457;BME280;59263;48.160;11.752;2023-03-04T12:59:19;96084.25;;;7.32;100.00
71457;BME280;59263;48.160;11.752;2023-03-04T13:02:21;96082.16;;;7.60;100.00
71457;BME280;59263;48.160;11.752;2023-03-04T13:04:53;96082.28;;;8.24;100.00
71457;BME280;59263;48.160;11.752;2023-03-04T13:10:10;96078.25;;;8.42;100.00
71457;BME280;59263;48.160;11.752;2023-03-04T13:15:29;96056.88;;;7.09;100.00
71457;BME280;59263;48.160;11.752;2023-03-04T13:18:02;96060.28;;;7.43;100.00
71457;BME280;59263;48.160;11.752;2023-03-04T13:20:40;96076.78;;;7.40;100.00
71457;BME280;59263;48.160;11.752;2023-03-04T13:28:40;96053.00;;;5.24;100.00
71457;BME280;59263;48.160;11.752;2023-03-04T13:43:45;96077.81;;;5.23;100.00
71457;BME280;59263;48.160;11.752;2023-03-04T13:49:22;96054.44;;;5.02;100.00
71457;BME280;59263;48.160;11.752;2023-03-04T13:51:49;96035.97;;;4.84;100.00
71457;BME280;59263;48.160;11.752;2023-03-04T13:54:29;96070.66;;;5.16;100.00
71457;BME280;59263;48.160;11.752;2023-03-04T14:07:31;96049.47;;;4.48;100.00
71457;BME280;59263;48.160;11.752;2023-03-04T14:10:03;96070.81;;;4.61;100.00
71457;BME280;59263;48.160;11.752;2023-03-04T14:12:36;96055.19;;;4.39;100.00
71457;BME280;59263;48.160;11.752;2023-03-04T14:15:30;96056.63;;;4.43;100.00
71457;BME280;59263;48.160;11.752;2023-03-04T14:18:03;96043.19;;;4.27;100.00
71457;BME280;59263;48.160;11.752;2023-03-04T14:20:37;96038.78;;;4.29;100.00
71457;BME280;59263;48.160;11.752;2023-03-04T14:23:21;96052.56;;;4.53;100.00
71457;BME280;59263;48.160;11.752;2023-03-04T14:25:49;96036.97;;;4.82;100.00
71457;BME280;59263;48.160;11.752;2023-03-04T14:28:17;96040.88;;;5.26;100.00
71457;BME280;59263;48.160;11.752;2023-03-04T14:30:50;96025.72;;;5.83;100.00
71457;BME280;59263;48.160;11.752;2023-03-04T14:33:52;96006.91;;;5.22;100.00
71457;BME280;59263;48.160;11.752;2023-03-04T14:36:23;95998.25;;;4.74;100.00
71457;BME280;59263;48.160;11.752;2023-03-04T14:38:53;96058.09;;;5.49;100.00
71457;BME280;59263;48.160;11.752;2023-03-04T14:41:39;96032.34;;;5.75;100.00
71457;BME280;59263;48.160;11.752;2023-03-04T14:44:37;96028.25;;;5.96;100.00
71457;BME280;59263;48.160;11.752;2023-03-04T14:49:54;96057.28;;;5.73;100.00
71457;BME280;59263;48.160;11.752;2023-03-04T14:52:40;96050.53;;;5.09;100.00
71457;BME280;59263;48.160;11.752;2023-03-04T14:55:17;96058.06;;;4.47;100.00
71457;BME280;59263;48.160;11.752;2023-03-04T14:58:18;96027.34;;;4.07;100.00
71457;BME280;59263;48.160;11.752;2023-03-04T15:00:44;96001.34;;;3.74;100.00
71457;BME280;59263;48.160;11.752;2023-03-04T15:03:27;96027.63;;;3.90;100.00